Time;durP1;ratioP1;P1;durP2;ratioP2;P2;SDS_P1;SDS_P2;PMS_P1;PMS_P2;Temp;Humidity;BMP_temperature;BMP_pressure;BME280_temperature;BME280_humidity;BME280_pressure;Samples;Min_cycle;Max_cycle;Signal;HPM_P1;HPM_P2
2022/04/08 00:00:09;;;;;;;27.33;6.57;;;7.90;99.90;;;7.86;75.24;99669.00;5094704;28;20147;-60
2022/04/08 00:02:39;;;;;;;22.88;6.35;;;7.80;99.90;;;7.91;75.24;99666.31;5095255;28;20051;-60
2022/04/08 00:05:08;;;;;;;27.75;6.30;;;7.80;99.90;;;7.88;75.96;99672.47;5094850;28;20404;-60
2022/04/08 00:07:37;;;;;;;23.05;5.38;;;7.80;99.90;;;7.92;76.58;99675.94;5094430;28;20438;-60
2022/04/08 00:10:06;;;;;;;25.45;6.90;;;7.80;99.90;;;7.87;75.56;99675.13;5076354;28;20040;-61
2022/04/08 00:12:35;;;;;;;20.75;5.82;;;7.80;99.90;;;7.90;75.71;99668.06;5094290;28;20113;-60
2022/04/08 00:15:06;;;;;;;27.48;6.45;;;7.80;99.90;;;7.94;76.41;99672.41;5094246;28;20044;-60
2022/04/08 00:17:35;;;;;;;23.20;6.50;;;7.80;99.90;;;7.95;76.99;99673.28;5094350;28;20048;-60
2022/04/08 00:20:03;;;;;;;27.50;8.45;;;7.80;99.90;;;7.88;76.67;99680.38;5094264;28;20514;-60
2022/04/08 00:22:33;;;;;;;20.20;6.53;;;7.80;99.90;;;7.87;78.03;99673.38;5076072;28;20075;-60
2022/04/08 00:25:01;;;;;;;30.50;8.43;;;7.80;99.90;;;7.76;78.89;99691.03;5094457;28;20472;-60
2022/04/08 00:27:30;;;;;;;24.85;6.65;;;7.70;99.90;;;7.26;80.33;99614.47;5094226;28;20040;-60
2022/04/08 00:29:58;;;;;;;23.27;7.10;;;7.70;99.90;;;7.69;82.25;99691.13;5075773;28;20408;-60
2022/04/08 00:32:28;;;;;;;15.40;6.25;;;7.60;99.90;;;7.59;82.76;99698.25;5094220;28;20052;-60
2022/04/08 00:34:56;;;;;;;32.25;7.78;;;7.50;99.90;;;7.54;83.40;99702.72;5094102;28;20060;-60
2022/04/08 00:37:24;;;;;;;25.33;7.20;;;7.40;99.90;;;7.56;84.10;99700.94;5093856;28;20566;-60
2022/04/08 00:39:53;;;;;;;20.65;6.88;;;7.40;99.90;;;7.46;85.11;99707.19;5093821;28;20113;-60
2022/04/08 00:42:21;;;;;;;24.77;7.68;;;7.40;99.90;;;7.58;85.06;99717.59;5093846;28;20055;-61
2022/04/08 00:44:49;;;;;;;27.55;6.88;;;7.40;99.90;;;7.64;85.25;99714.91;5093484;28;20040;-60
2022/04/08 00:47:18;;;;;;;21.60;6.50;;;7.50;99.90;;;7.57;85.24;99712.34;5093812;28;20109;-60
2022/04/08 00:49:48;;;;;;;33.47;7.78;;;7.50;99.90;;;7.57;85.40;99715.81;5094090;28;20580;-60
2022/04/08 00:52:17;;;;;;;32.35;7.53;;;7.40;99.90;;;7.64;84.67;99719.28;5093934;28;20048;-60
2022/04/08 00:54:46;;;;;;;28.77;7.53;;;7.50;99.90;;;7.55;83.82;99729.91;5093678;28;20122;-60
2022/04/08 00:57:15;;;;;;;33.58;7.80;;;7.50;99.90;;;7.46;83.63;99730.88;5093772;28;20068;-60
2022/04/08 00:59:43;;;;;;;27.48;7.28;;;7.40;99.90;;;7.56;83.26;99734.28;5093488;28;20082;-60
2022/04/08 01:02:12;;;;;;;33.15;7.40;;;7.40;99.90;;;7.56;82.31;99742.16;5093714;28;20075;-60
2022/04/08 01:04:41;;;;;;;26.55;7.15;;;7.40;99.90;;;7.65;81.58;99739.41;5093920;28;20036;-61
2022/04/08 01:07:10;;;;;;;26.70;7.70;;;7.50;99.90;;;7.64;81.82;99730.69;5093505;28;20044;-60
2022/04/08 01:09:39;;;;;;;25.37;7.43;;;7.50;99.90;;;7.68;81.16;99724.50;5093524;28;20036;-60
2022/04/08 01:12:08;;;;;;;25.35;6.65;;;7.60;99.90;;;7.70;81.27;99738.50;5093461;28;20115;-60
2022/04/08 01:14:39;;;;;;;28.67;6.93;;;7.60;99.90;;;7.84;81.65;99733.94;5093394;28;20147;-60
2022/04/08 01:17:08;;;;;;;30.25;7.38;;;7.70;99.90;;;7.88;81.12;99735.66;5093437;28;20047;-60
2022/04/08 01:19:36;;;;;;;30.25;7.63;;;7.70;99.90;;;7.85;82.13;99738.34;5093383;28;20071;-60
2022/04/08 01:22:05;;;;;;;25.90;7.60;;;7.70;99.90;;;7.77;82.14;99731.41;5093595;28;20062;-60
2022/04/08 01:24:37;;;;;;;23.00;6.90;;;7.60;99.90;;;7.83;80.76;99742.75;5093399;28;20048;-60
2022/04/08 01:27:07;;;;;;;24.75;6.65;;;7.70;99.90;;;7.88;80.35;99751.44;5093697;28;20052;-61
2022/04/08 01:29:35;;;;;;;32.95;7.22;;;7.70;99.90;;;7.99;80.49;99743.44;5093685;28;20160;-60
2022/04/08 01:32:04;;;;;;;24.48;6.07;;;7.80;99.90;;;8.04;79.29;99741.59;5093552;28;20072;-60
2022/04/08 01:34:33;;;;;;;22.65;6.22;;;7.90;99.90;;;7.99;78.05;99736.38;5093238;28;20045;-60
2022/04/08 01:37:01;;;;;;;18.98;5.90;;;7.90;99.90;;;8.02;77.01;99740.75;5093254;28;20070;-60
2022/04/08 01:39:30;;;;;;;17.55;5.97;;;7.90;99.90;;;8.14;75.38;99746.75;5093324;28;20425;-60
2022/04/08 01:41:58;;;;;;;21.25;6.38;;;8.00;99.90;;;7.96;75.83;99741.69;5075417;28;20067;-60
2022/04/08 01:44:28;;;;;;;34.45;6.45;;;7.90;99.90;;;8.00;75.24;99748.66;5093305;28;20044;-60
2022/04/08 01:46:56;;;;;;;19.25;5.93;;;7.90;99.90;;;8.02;74.53;99746.00;5093040;28;20410;-60
2022/04/08 01:49:25;;;;;;;14.73;6.03;;;7.90;99.90;;;7.95;73.98;99760.16;5092879;28;20082;-60
2022/04/08 01:51:53;;;;;;;14.50;5.82;;;7.90;99.90;;;7.99;73.03;99760.06;5092795;28;20146;-60
2022/04/08 01:54:22;;;;;;;18.42;5.93;;;7.90;99.90;;;7.99;73.70;99767.97;5093260;28;20473;-60
2022/04/08 01:56:50;;;;;;;22.33;5.70;;;7.90;99.90;;;7.92;73.73;99768.06;5092802;28;20106;-60
2022/04/08 01:59:19;;;;;;;19.48;6.80;;;7.80;99.90;;;7.92;73.67;99770.69;5092441;28;20136;-60
2022/04/08 02:01:48;;;;;;;12.02;5.25;;;7.80;99.90;;;7.99;73.54;99773.25;5073677;28;20414;-60
2022/04/08 02:04:18;;;;;;;14.27;6.10;;;7.80;99.90;;;7.89;73.62;99766.38;5093096;28;20428;-61
2022/04/08 02:06:46;;;;;;;20.15;5.60;;;7.80;99.90;;;7.79;73.37;99750.69;5092306;28;20081;-60
2022/04/08 02:09:14;;;;;;;16.73;7.10;;;7.80;99.90;;;7.83;73.65;99765.53;5092615;28;20052;-60
2022/04/08 02:11:43;;;;;;;22.92;6.63;;;7.80;99.90;;;7.83;73.62;99763.78;5092534;28;20130;-60
2022/04/08 02:14:11;;;;;;;17.75;6.47;;;7.80;99.90;;;7.83;73.79;99761.16;5092473;28;20047;-60
2022/04/08 02:16:40;;;;;;;14.93;5.88;;;7.70;99.90;;;7.89;73.43;99761.09;5092142;28;20132;-60
2022/04/08 02:19:10;;;;;;;16.58;5.75;;;7.80;99.90;;;8.04;72.86;99746.88;5092072;28;20055;-61
2022/04/08 02:21:38;;;;;;;14.53;5.83;;;7.90;99.90;;;7.94;73.59;99759.28;5092085;28;20558;-61
2022/04/08 02:24:08;;;;;;;13.43;5.82;;;7.90;99.90;;;8.10;72.72;99759.97;5091945;28;20289;-60
2022/04/08 02:26:36;;;;;;;11.13;6.78;;;8.00;99.90;;;8.12;72.61;99756.44;5091860;28;20124;-60
2022/04/08 02:29:05;;;;;;;14.90;5.45;;;8.00;99.90;;;8.17;72.61;99758.97;5091905;28;20130;-60
2022/04/08 02:31:33;;;;;;;11.80;5.95;;;8.00;99.90;;;8.00;72.97;99750.41;5092409;28;20044;-60
2022/04/08 02:34:02;;;;;;;18.50;6.32;;;7.90;99.90;;;8.04;73.68;99753.00;5092035;28;20101;-60
2022/04/08 02:36:32;;;;;;;11.02;5.90;;;7.90;99.90;;;8.03;73.49;99745.97;5091772;28;20569;-60
2022/04/08 02:39:00;;;;;;;16.73;6.23;;;7.90;99.90;;;8.05;73.75;99740.72;5091679;28;20052;-60
2022/04/08 02:41:29;;;;;;;16.08;5.78;;;7.90;99.90;;;8.18;73.39;99755.47;5091599;28;20044;-60
2022/04/08 02:43:57;;;;;;;16.55;6.00;;;8.00;99.90;;;8.21;73.47;99752.78;5091641;28;20044;-60
2022/04/08 02:46:26;;;;;;;16.20;6.05;;;8.00;99.90;;;7.89;72.96;99697.91;5073452;28;20150;-60
2022/04/08 02:48:54;;;;;;;10.88;5.50;;;8.10;99.90;;;7.99;72.72;99739.00;5092102;28;20040;-60
2022/04/08 02:51:23;;;;;;;9.32;5.05;;;7.90;99.90;;;8.21;72.77;99758.94;5073525;28;20461;-60
2022/04/08 02:53:52;;;;;;;14.05;5.63;;;8.00;99.90;;;8.21;71.69;99758.94;5091535;28;20044;-60
2022/04/08 02:56:21;;;;;;;11.57;5.37;;;8.10;99.90;;;8.19;71.89;99754.56;5091451;28;20056;-60
2022/04/08 02:58:49;;;;;;;14.77;5.60;;;8.10;99.90;;;8.28;72.35;99770.31;5073481;28;20078;-60
2022/04/08 03:01:18;;;;;;;9.68;4.88;;;8.20;99.90;;;8.31;71.75;99764.09;5091668;28;20083;-60
2022/04/08 03:03:46;;;;;;;8.40;4.82;;;8.20;99.90;;;8.28;72.43;99775.56;5091399;28;20135;-61
2022/04/08 03:06:15;;;;;;;18.13;5.68;;;8.20;99.90;;;8.25;72.19;99770.31;5091341;28;20055;-60
2022/04/08 03:08:43;;;;;;;11.75;5.10;;;8.10;99.90;;;8.26;72.68;99785.25;5091367;28;20064;-60
2022/04/08 03:11:17;;;;;;;14.38;4.70;;;8.10;99.90;;;8.28;72.48;99783.47;5091461;28;20126;-60
2022/04/08 03:13:45;;;;;;;12.43;5.20;;;8.20;99.90;;;8.25;72.95;99790.53;5095464;28;20036;-60
2022/04/08 03:16:14;;;;;;;12.85;5.28;;;8.10;99.90;;;8.18;72.90;99793.22;5095627;28;20106;-60
2022/04/08 03:18:46;;;;;;;12.80;5.20;;;8.00;99.90;;;8.31;72.86;99799.22;5077425;28;20501;-60
2022/04/08 03:21:14;;;;;;;10.95;4.88;;;8.10;99.90;;;8.34;72.40;99795.69;5095388;28;20093;-60
2022/04/08 03:23:43;;;;;;;17.08;5.53;;;8.20;99.90;;;8.33;72.10;99793.94;5095313;28;20829;-60
2022/04/08 03:26:12;;;;;;;14.88;5.40;;;8.20;99.90;;;8.23;72.81;99805.47;5095234;28;20397;-60
2022/04/08 03:28:43;;;;;;;17.58;5.30;;;8.10;99.90;;;8.33;71.92;99799.19;5095209;28;20062;-60
2022/04/08 03:31:14;;;;;;;11.65;4.63;;;8.20;99.90;;;8.21;72.27;99798.44;5095505;28;20059;-60
2022/04/08 03:33:43;;;;;;;12.98;5.32;;;8.10;99.90;;;8.31;72.43;99801.88;5095118;28;20036;-60
2022/04/08 03:36:11;;;;;;;14.18;5.30;;;8.10;99.90;;;8.23;72.88;99801.94;5095045;28;20086;-60
2022/04/08 03:38:39;;;;;;;14.65;5.40;;;8.10;99.90;;;8.10;72.79;99771.38;5095220;28;20044;-60
2022/04/08 03:41:08;;;;;;;13.52;4.63;;;8.10;99.90;;;8.25;72.41;99785.25;5076965;28;20101;-60
2022/04/08 03:43:36;;;;;;;16.45;5.68;;;8.10;99.90;;;8.35;72.36;99792.16;5095303;28;20055;-60
2022/04/08 03:46:06;;;;;;;15.77;5.65;;;8.20;99.90;;;8.27;72.17;99791.38;5095060;28;20047;-60
2022/04/08 03:48:34;;;;;;;11.55;5.15;;;8.10;99.90;;;8.20;72.42;99782.66;5095221;28;20068;-61
2022/04/08 03:51:03;;;;;;;12.93;5.35;;;8.10;99.90;;;8.23;72.60;99788.75;5094941;28;20032;-60
2022/04/08 03:53:31;;;;;;;12.48;4.93;;;8.10;99.90;;;8.29;72.13;99781.69;5095090;28;20098;-60
2022/04/08 03:56:01;;;;;;;12.93;5.05;;;8.10;99.90;;;8.25;72.18;99779.97;5076347;28;20127;-60
2022/04/08 03:58:29;;;;;;;11.85;4.72;;;8.10;99.90;;;8.29;71.60;99781.69;5094967;28;20547;-60
2022/04/08 04:00:58;;;;;;;13.52;5.35;;;8.10;99.90;;;8.25;71.56;99782.63;5076659;28;20055;-60
2022/04/08 04:03:28;;;;;;;15.88;5.07;;;8.10;99.90;;;8.36;71.05;99778.97;5095202;28;20040;-61
2022/04/08 04:05:56;;;;;;;15.18;5.38;;;8.20;99.90;;;8.45;71.00;99780.59;5094786;28;20051;-60
2022/04/08 04:08:25;;;;;;;10.80;4.65;;;8.30;99.90;;;8.36;70.70;99780.75;5095104;28;20419;-60
2022/04/08 04:10:53;;;;;;;14.98;5.60;;;8.30;99.90;;;8.27;71.50;99772.94;5095052;28;20048;-60
2022/04/08 04:13:22;;;;;;;14.23;5.20;;;8.20;99.90;;;8.40;71.04;99774.53;5094762;28;20040;-61
2022/04/08 04:15:51;;;;;;;14.80;5.53;;;8.20;99.90;;;8.27;71.48;99776.44;5094653;28;20090;-60
2022/04/08 04:18:19;;;;;;;15.32;5.88;;;8.10;99.90;;;8.32;71.51;99777.28;5095215;28;20044;-60
2022/04/08 04:20:49;;;;;;;13.60;5.47;;;8.20;99.90;;;8.47;71.12;99777.06;5095214;28;20051;-60
2022/04/08 04:23:17;;;;;;;9.77;4.73;;;8.30;99.90;;;8.50;71.06;99779.66;5076213;28;20139;-60
2022/04/08 04:25:46;;;;;;;16.25;5.28;;;8.30;99.90;;;8.50;70.93;99776.13;5094525;28;20123;-60
2022/04/08 04:28:15;;;;;;;11.00;4.70;;;8.30;99.90;;;8.63;70.46;99781.22;5094445;28;20070;-60
2022/04/08 04:30:43;;;;;;;13.48;4.82;;;8.50;99.90;;;8.68;70.42;99786.44;5094825;28;20553;-60
2022/04/08 04:33:12;;;;;;;12.27;5.07;;;8.50;99.90;;;8.65;70.25;99787.34;5094906;28;20051;-60
2022/04/08 04:35:40;;;;;;;10.90;5.20;;;8.50;99.90;;;8.56;69.77;99765.50;5094711;28;20052;-61
2022/04/08 04:38:10;;;;;;;17.27;5.07;;;8.50;99.90;;;8.79;69.65;99785.38;5095084;28;20059;-60
2022/04/08 04:40:38;;;;;;;19.02;5.55;;;8.60;99.90;;;8.80;69.19;99786.25;5094813;28;20226;-61
2022/04/08 04:43:07;;;;;;;11.77;5.32;;;8.60;99.90;;;8.89;68.83;99787.00;5094394;28;20089;-60
2022/04/08 04:45:37;;;;;;;14.85;4.88;;;8.70;99.90;;;8.97;68.82;99778.97;5076122;28;20386;-60
2022/04/08 04:48:07;;;;;;;14.50;5.07;;;8.80;99.90;;;8.99;68.43;99777.16;5094320;28;20051;-60
2022/04/08 04:50:36;;;;;;;15.32;5.38;;;8.90;99.90;;;9.13;67.87;99785.75;5094411;28;20550;-60
2022/04/08 04:53:04;;;;;;;13.07;4.82;;;9.00;99.90;;;9.22;67.89;99787.34;5094192;28;20143;-60
2022/04/08 04:55:34;;;;;;;16.48;5.70;;;9.00;99.90;;;9.16;68.46;99784.81;5094062;28;20526;-60
2022/04/08 04:58:02;;;;;;;23.20;5.80;;;9.00;99.90;;;9.22;68.21;99788.22;5094180;28;20059;-60
2022/04/08 05:00:31;;;;;;;14.77;5.40;;;9.10;99.90;;;9.25;68.26;99785.56;5093655;28;20074;-60
2022/04/08 05:03:01;;;;;;;14.93;5.97;;;9.10;99.90;;;9.17;68.29;99787.44;5094234;28;20083;-61
2022/04/08 05:05:29;;;;;;;14.00;5.50;;;9.00;99.90;;;9.17;67.73;99784.81;5093519;28;20043;-61
2022/04/08 05:08:02;;;;;;;11.52;4.97;;;9.00;99.90;;;9.17;67.39;99784.81;5093400;28;20147;-60
2022/04/08 05:10:31;;;;;;;17.23;5.00;;;9.00;99.90;;;9.23;67.06;99776.78;5093729;28;20127;-63
2022/04/08 05:13:01;;;;;;;13.75;5.60;;;9.10;99.90;;;8.98;67.43;99778.94;5093358;28;20052;-61
2022/04/08 05:15:32;;;;;;;13.18;5.43;;;8.90;99.90;;;9.11;67.00;99776.97;5093903;28;20501;-61
2022/04/08 05:18:00;;;;;;;11.70;4.75;;;8.90;99.90;;;9.21;66.28;99773.31;5093567;28;20109;-61
2022/04/08 05:20:29;;;;;;;14.75;5.35;;;9.00;99.90;;;9.15;66.16;99769.88;5074985;28;20060;-61
2022/04/08 05:22:57;;;;;;;18.65;5.35;;;9.00;99.90;;;9.07;66.55;99773.53;5093140;28;20404;-61
2022/04/08 05:25:26;;;;;;;15.43;5.68;;;8.90;99.90;;;9.14;66.24;99762.88;5093279;28;20070;-62
2022/04/08 05:27:56;;;;;;;16.02;5.45;;;8.90;99.90;;;9.15;66.33;99773.41;5093237;28;20040;-60
2022/04/08 05:30:26;;;;;;;21.90;5.50;;;8.90;99.90;;;9.05;66.35;99774.44;5092799;28;20484;-61
2022/04/08 05:32:55;;;;;;;13.90;4.97;;;8.90;99.90;;;9.04;66.71;99756.84;5074890;28;20048;-61
2022/04/08 05:35:24;;;;;;;19.50;5.25;;;8.80;99.90;;;9.10;65.95;99767.31;5092132;28;20048;-61
2022/04/08 05:37:52;;;;;;;16.65;5.13;;;8.90;99.90;;;9.20;66.40;99768.91;5093129;28;20048;-61
2022/04/08 05:40:21;;;;;;;17.55;6.07;;;8.90;99.90;;;9.23;66.40;99758.31;5092949;28;20038;-60
2022/04/08 05:42:51;;;;;;;12.98;5.15;;;9.10;99.90;;;9.15;66.78;99760.22;5092851;28;20048;-60
2022/04/08 05:45:21;;;;;;;20.00;5.70;;;9.00;99.90;;;9.20;66.41;99754.84;5092756;28;20109;-61
2022/04/08 05:47:54;;;;;;;15.90;5.15;;;9.00;99.90;;;9.32;66.18;99752.00;5092725;28;20306;-60
2022/04/08 05:50:23;;;;;;;12.73;5.13;;;9.10;99.90;;;9.39;66.26;99743.94;5092864;28;20079;-60
2022/04/08 05:52:52;;;;;;;18.10;5.00;;;9.20;99.90;;;9.38;65.67;99749.25;5092796;28;20041;-60
2022/04/08 05:55:21;;;;;;;15.20;5.63;;;9.20;99.90;;;9.45;66.00;99757.03;5074416;28;20109;-60
2022/04/08 05:57:53;;;;;;;17.40;5.43;;;9.30;99.90;;;9.16;66.03;99714.47;5074366;28;20500;-61
2022/04/08 06:00:21;;;;;;;15.35;5.05;;;9.40;99.90;;;9.68;65.85;99760.13;5092366;28;20145;-61
2022/04/08 06:02:55;;;;;;;15.63;5.40;;;9.50;99.90;;;9.55;66.46;99753.34;5092474;28;20067;-61
2022/04/08 06:05:24;;;;;;;15.18;5.18;;;9.40;99.90;;;9.56;66.73;99760.34;5074267;28;20075;-61
2022/04/08 06:07:54;;;;;;;16.73;5.40;;;9.40;99.90;;;9.65;67.38;99751.41;5092105;28;20042;-61
2022/04/08 06:10:25;;;;;;;15.05;5.80;;;9.40;99.90;;;9.61;67.18;99752.34;5092145;28;20375;-60
2022/04/08 06:12:55;;;;;;;19.45;5.82;;;9.50;99.90;;;9.72;67.26;99760.94;5092107;28;20055;-60
2022/04/08 06:15:26;;;;;;;15.07;5.40;;;9.50;99.90;;;9.58;67.38;99745.34;5074014;28;20127;-60
2022/04/08 06:17:56;;;;;;;14.80;5.85;;;9.50;99.90;;;9.78;67.25;99751.13;5091996;28;20067;-60
2022/04/08 06:20:25;;;;;;;14.98;5.38;;;9.60;99.90;;;9.88;67.26;99758.00;5073971;28;20067;-60
2022/04/08 06:22:55;;;;;;;17.55;5.93;;;9.70;99.90;;;9.84;67.18;99758.94;5091948;28;20040;-60
2022/04/08 06:25:25;;;;;;;17.05;6.10;;;9.70;99.90;;;9.96;66.89;99747.28;5091892;28;20048;-60
2022/04/08 06:27:57;;;;;;;14.80;5.13;;;9.80;99.90;;;9.93;66.57;99745.56;5091741;28;20123;-61
2022/04/08 06:30:26;;;;;;;17.50;5.63;;;9.80;99.90;;;9.87;66.36;99744.81;5073790;28;20048;-60
2022/04/08 06:32:56;;;;;;;18.10;6.28;;;9.80;99.90;;;9.87;66.84;99750.09;5091797;28;20409;-60
2022/04/08 06:35:25;;;;;;;18.65;6.10;;;9.70;99.90;;;10.04;66.57;99751.47;5092050;28;20109;-60
2022/04/08 06:38:00;;;;;;;14.45;5.90;;;9.90;99.90;;;10.12;66.36;99755.78;5091771;28;20119;-61
2022/04/08 06:40:29;;;;;;;13.48;4.65;;;9.90;99.90;;;10.11;65.55;99743.47;5091594;28;20445;-60
2022/04/08 06:42:59;;;;;;;14.63;5.07;;;9.90;99.90;;;10.20;64.86;99754.72;5091643;28;20046;-59
2022/04/08 06:45:27;;;;;;;13.30;4.97;;;10.10;99.90;;;10.24;64.40;99758.19;5091704;28;20040;-58
2022/04/08 06:47:58;;;;;;;12.63;5.00;;;10.10;99.90;;;10.29;63.92;99756.31;5091805;28;20438;-58
2022/04/08 06:50:26;;;;;;;16.85;5.07;;;10.10;99.90;;;10.35;64.30;99759.69;5091907;28;20397;-58
2022/04/08 06:52:59;;;;;;;11.52;4.45;;;10.20;99.90;;;10.49;64.39;99754.97;5091803;28;20470;-58
2022/04/08 06:55:28;;;;;;;17.25;5.10;;;10.30;99.90;;;10.71;63.59;99755.34;5091462;28;20058;-59
2022/04/08 06:57:59;;;;;;;14.32;4.85;;;10.50;99.90;;;10.70;62.63;99751.84;5092137;28;20097;-59
2022/04/08 07:00:28;;;;;;;16.95;5.13;;;10.50;99.90;;;10.31;62.82;99662.88;5091815;28;20051;-58
2022/04/08 07:02:57;;;;;;;12.65;5.20;;;10.70;99.90;;;10.97;62.82;99754.75;5091815;28;20135;-59
2022/04/08 07:05:28;;;;;;;17.08;5.15;;;10.80;99.90;;;10.99;63.15;99758.22;5073725;28;20044;-58
2022/04/08 07:07:57;;;;;;;13.95;5.35;;;10.80;99.90;;;11.16;63.09;99756.91;5091817;28;20044;-59
2022/04/08 07:10:26;;;;;;;16.27;5.43;;;10.90;99.90;;;11.33;63.63;99765.31;5091782;28;20040;-59
2022/04/08 07:12:55;;;;;;;15.90;5.38;;;11.10;99.90;;;11.56;62.06;99757.63;5091595;28;20050;-58
2022/04/08 07:15:23;;;;;;;13.80;5.15;;;11.30;99.90;;;11.38;61.46;99734.28;5092351;28;20048;-58
2022/04/08 07:17:52;;;;;;;16.77;4.90;;;11.30;99.90;;;10.68;61.28;99764.22;5073570;28;20063;-59
2022/04/08 07:20:22;;;;;;;12.73;5.40;;;10.80;99.90;;;10.57;61.76;99747.72;5091585;28;20253;-59
2022/04/08 07:22:51;;;;;;;12.07;4.90;;;10.50;99.90;;;10.46;62.53;99754.16;5092365;28;20048;-59
2022/04/08 07:25:19;;;;;;;14.90;4.85;;;10.30;99.90;;;9.82;63.86;99705.28;5091679;28;20071;-58
2022/04/08 07:27:50;;;;;;;12.02;5.03;;;9.90;99.90;;;10.21;64.28;99751.19;5091559;28;20094;-59
2022/04/08 07:30:21;;;;;;;12.25;4.88;;;10.00;99.90;;;10.36;63.55;99749.97;5091503;28;20040;-59
2022/04/08 07:32:52;;;;;;;14.52;5.45;;;10.10;99.90;;;10.26;63.90;99740.53;5091772;28;20048;-61
2022/04/08 07:35:23;;;;;;;15.57;4.95;;;10.10;99.90;;;10.40;63.76;99738.44;5091601;28;20074;-59
2022/04/08 07:37:53;;;;;;;13.55;5.28;;;10.20;99.90;;;10.47;63.84;99745.34;5091624;28;20052;-58
2022/04/08 07:40:21;;;;;;;18.40;5.72;;;10.30;99.90;;;10.51;63.93;99734.66;5091785;28;20058;-58
2022/04/08 07:42:50;;;;;;;13.35;4.85;;;10.30;99.90;;;10.43;64.13;99741.88;5091633;28;20044;-58
2022/04/08 07:45:19;;;;;;;19.25;4.93;;;10.30;99.90;;;10.20;64.44;99730.94;5073227;28;20048;-58
2022/04/08 07:47:49;;;;;;;15.20;4.90;;;10.10;99.90;;;9.35;64.70;99657.81;5091777;28;20050;-58
2022/04/08 07:50:17;;;;;;;12.50;5.00;;;9.80;99.90;;;9.83;64.03;99725.50;5091152;28;20051;-58
2022/04/08 07:52:47;;;;;;;15.27;4.97;;;9.70;99.90;;;9.79;64.56;99737.03;5091468;28;20042;-58
2022/04/08 07:55:20;;;;;;;14.13;4.65;;;9.60;99.90;;;9.90;64.42;99729.78;5091143;28;20044;-58
2022/04/08 07:57:51;;;;;;;10.27;5.00;;;9.80;99.90;;;9.72;64.74;99735.41;5091704;28;20335;-58
2022/04/08 08:00:22;;;;;;;15.73;6.00;;;9.60;99.90;;;9.65;65.57;99733.81;5094326;28;20106;-58
2022/04/08 08:02:50;;;;;;;;;;;9.50;99.90;;;9.65;65.10;99733.81;5095287;28;20040;-60
2022/04/08 08:05:21;;;;;;;11.63;4.93;;;9.60;99.90;;;9.78;64.85;99730.00;5094791;28;19924;-64
2022/04/08 08:07:52;;;;;;;;;;;9.60;99.90;;;10.04;65.00;99732.16;5095197;28;20413;-59
2022/04/08 08:10:23;;;;;;;10.20;4.97;;;9.90;99.90;;;10.06;64.22;99726.81;5095026;28;20272;-58
2022/04/08 08:12:52;;;;;;;15.27;5.07;;;9.90;99.90;;;9.96;65.41;99724.38;5094610;28;20459;-58
2022/04/08 08:15:22;;;;;;;10.63;4.80;;;9.90;99.90;;;10.16;64.94;99724.00;5094837;28;20110;-58
2022/04/08 08:17:51;;;;;;;15.15;4.80;;;10.00;99.90;;;9.40;63.84;99626.06;5094369;28;20055;-58
2022/04/08 08:20:21;;;;;;;11.50;4.40;;;9.90;99.90;;;10.08;64.33;99719.72;5094543;28;20072;-59
2022/04/08 08:22:52;;;;;;;11.13;4.78;;;10.00;99.90;;;10.23;63.76;99717.66;5094807;28;20048;-60
2022/04/08 08:25:21;;;;;;;;;;;10.10;99.90;;;10.28;63.69;99717.59;5094959;28;20077;-60
2022/04/08 08:27:54;;;;;;;12.00;4.93;;;10.10;99.90;;;10.44;62.93;99711.91;5094847;28;19930;-59
2022/04/08 08:30:23;;;;;;;10.90;4.68;;;10.30;99.90;;;10.58;63.30;99708.94;5094575;28;20044;-59
2022/04/08 08:32:52;;;;;;;14.55;4.78;;;10.40;99.90;;;10.76;63.03;99713.81;5094602;28;20047;-59
2022/04/08 08:35:21;;;;;;;14.05;5.30;;;10.50;99.90;;;10.82;63.29;99682.78;5076251;28;20127;-60
2022/04/08 08:37:51;;;;;;;13.50;4.68;;;10.80;99.90;;;10.98;62.51;99708.84;5093990;28;20052;-59
2022/04/08 08:40:20;;;;;;;16.67;4.87;;;10.90;99.90;;;10.64;62.89;99699.13;5094336;28;20135;-58
2022/04/08 08:42:49;;;;;;;15.02;4.45;;;10.60;99.90;;;10.68;63.36;99706.03;5094053;28;20290;-58
2022/04/08 08:45:18;;;;;;;12.60;4.65;;;10.50;99.90;;;10.59;62.83;99715.97;5094066;28;20460;-58
2022/04/08 08:47:48;;;;;;;15.43;4.72;;;10.40;99.90;;;10.55;62.83;99698.47;5075776;28;20124;-59
2022/04/08 08:50:18;;;;;;;14.23;4.35;;;10.40;99.90;;;10.98;62.14;99700.91;5093836;28;20463;-61
2022/04/08 08:52:51;;;;;;;12.55;4.55;;;10.70;99.90;;;10.83;60.48;99695.13;5093765;28;20048;-60
2022/04/08 08:55:20;;;;;;;15.32;4.97;;;10.70;99.90;;;10.94;61.09;99700.13;5093990;28;20040;-61
2022/04/08 08:57:49;;;;;;;14.07;4.88;;;10.70;99.90;;;10.89;60.38;99699.38;5093611;28;20109;-61
2022/04/08 09:00:20;;;;;;;15.45;4.50;;;10.80;99.90;;;10.78;61.35;99697.00;5094072;28;20094;-61
2022/04/08 09:02:50;;;;;;;8.27;4.47;;;10.70;99.90;;;10.77;61.39;99689.09;5093825;28;20115;-63
2022/04/08 09:05:21;;;;;;;10.60;4.38;;;10.70;99.90;;;10.55;61.33;99695.81;5093508;28;20139;-61
2022/04/08 09:07:58;;;;;;;13.25;5.22;;;10.50;99.90;;;10.44;61.95;99684.59;5093469;28;20402;-61
2022/04/08 09:10:29;;;;;;;11.73;5.28;;;10.40;99.90;;;10.27;63.75;99711.41;5093129;28;20036;-61
2022/04/08 09:13:00;;;;;;;13.88;4.93;;;10.10;99.90;;;10.28;63.66;99641.78;5093223;28;20052;-59
2022/04/08 09:15:29;;;;;;;12.55;5.20;;;10.40;99.90;;;10.70;61.05;99703.38;5093317;28;20411;-61
2022/04/08 09:18:07;;;;;;;10.07;4.70;;;10.50;99.90;;;10.33;61.83;99703.38;5093134;28;20048;-62
2022/04/08 09:20:42;;;;;;;14.50;4.88;;;10.30;99.90;;;10.19;62.49;99708.06;5093079;28;20055;-61
2022/04/08 09:23:14;;;;;;;12.30;4.63;;;10.10;99.90;;;10.39;62.40;99700.59;5093002;28;20048;-61
2022/04/08 09:25:43;;;;;;;9.85;4.90;;;10.10;99.90;;;10.10;63.23;99695.06;5075044;28;20048;-64
2022/04/08 09:28:13;;;;;;;14.00;5.10;;;10.00;99.90;;;10.12;62.77;99702.94;5074959;28;20109;-65
2022/04/08 09:30:48;;;;;;;15.02;4.90;;;10.00;99.90;;;10.17;62.93;99701.06;5092836;28;20043;-63
2022/04/08 09:33:19;;;;;;;15.60;5.13;;;10.00;99.90;;;10.08;63.37;99696.84;5092825;28;20045;-66
2022/04/08 09:35:50;;;;;;;15.25;4.95;;;9.90;99.90;;;10.12;63.57;99695.91;5092787;28;20044;-64
2022/04/08 09:38:21;;;;;;;;;;;9.90;99.90;;;10.24;63.23;99697.41;5093139;28;20070;-65
2022/04/08 09:40:50;;;;;;;15.20;4.97;;;10.00;99.90;;;10.16;63.20;99696.69;5092693;28;19920;-63
2022/04/08 09:43:19;;;;;;;12.80;5.00;;;10.00;99.90;;;10.01;64.83;99689.91;5093082;28;20031;-63
2022/04/08 09:45:48;;;;;;;14.55;5.68;;;9.90;99.90;;;10.22;65.20;99692.13;5074556;28;20067;-67
2022/04/08 09:48:17;;;;;;;16.92;5.85;;;10.00;99.90;;;10.17;64.73;99677.28;5093049;28;20131;-64
2022/04/08 09:50:51;;;;;;;19.25;4.78;;;10.00;99.90;;;10.07;64.28;99686.28;5092691;28;20036;-66
2022/04/08 09:53:22;;;;;;;13.95;5.45;;;9.90;99.90;;;10.20;64.11;99698.38;5092579;28;20044;-66
2022/04/08 09:55:51;;;;;;;14.60;5.15;;;10.00;99.90;;;10.25;64.51;99694.72;5092486;28;20148;-65
2022/04/08 09:58:21;;;;;;;10.88;4.47;;;10.10;99.90;;;10.12;64.76;99687.09;5092962;28;20058;-64
2022/04/08 10:00:51;;;;;;;9.18;4.25;;;10.00;99.90;;;10.08;64.44;99699.47;5092750;28;20044;-61
2022/04/08 10:03:20;;;;;;;11.90;4.53;;;9.90;99.90;;;10.07;64.34;99683.63;5092726;28;20128;-62
2022/04/08 10:05:50;;;;;;;12.50;5.25;;;10.00;99.90;;;10.55;64.37;99699.31;5074143;28;20098;-66
2022/04/08 10:08:19;;;;;;;12.10;5.47;;;10.30;99.90;;;10.53;64.09;99684.41;5092555;28;20048;-64
2022/04/08 10:10:56;;;;;;;10.48;4.78;;;10.50;99.90;;;10.78;62.44;99712.84;5092771;28;20043;-63
2022/04/08 10:13:46;;;;;;;12.70;4.95;;;10.60;99.90;;;10.94;62.50;99700.13;5092374;28;20405;-63
2022/04/08 10:16:18;;;;;;;8.90;4.55;;;10.70;99.90;;;11.18;62.12;99691.59;5092681;28;20048;-64
2022/04/08 10:18:49;;;;;;;18.58;5.78;;;11.00;99.90;;;11.02;61.62;99700.81;5092908;28;20072;-62
2022/04/08 10:21:18;;;;;;;13.77;4.82;;;10.90;99.90;;;10.89;61.71;99697.63;5073913;28;20044;-63
2022/04/08 10:23:52;;;;;;;15.52;5.15;;;10.80;99.90;;;10.53;63.43;99689.69;5091965;28;20516;-63
2022/04/08 10:26:23;;;;;;;18.35;4.90;;;10.50;99.90;;;10.52;62.91;99685.28;5092268;28;20412;-62
2022/04/08 10:28:53;;;;;;;10.23;4.43;;;10.50;99.90;;;10.39;63.21;99658.28;5074096;28;20047;-61
2022/04/08 10:31:24;;;;;;;10.00;4.60;;;10.40;99.90;;;10.27;63.44;99676.19;5074037;28;20097;-62